Terminal Aerodrome Forecast
Issued by NWS Wilmington, OH

Home | Current Version | Previous Version | Text Only | Print | Product List | Glossary On
Versions: 1 2 3 4 5 6 7 8 9 10 11 12 13 14 15 16 17 18 19 20 21 22 23
000
FTUS41 KILN 280800 AAB
TAFCVG
TAF AMD
KCVG 280856Z 2809/2912 34010KT P6SM BKN008 OVC015
      TEMPO 2809/2813 SCT008 OVC015
     FM281300 34008KT P6SM OVC018
     FM281800 35006KT P6SM BKN022
      TEMPO 2819/2823 SCT025
     FM290900 02005KT P6SM FEW025=

USA.gov is the U.S. government's official web portal to all federal, state and local government web resources and services.